createdAt,value
2022-10-22T00:00:00.751Z,8.20
2022-10-22T00:02:27.975Z,7.50
2022-10-22T00:04:56.974Z,6.90
2022-10-22T00:07:24.351Z,7.50
2022-10-22T00:09:50.811Z,6.75
2022-10-22T00:12:17.412Z,4.03
2022-10-22T00:14:43.844Z,4.10
2022-10-22T00:17:11.556Z,6.43
2022-10-22T00:19:38.930Z,4.50
2022-10-22T00:22:05.801Z,8.00
2022-10-22T00:24:33.374Z,8.77
2022-10-22T00:27:00.319Z,5.32
2022-10-22T00:29:26.695Z,6.07
2022-10-22T00:31:53.317Z,4.05
2022-10-22T00:34:22.292Z,4.38
2022-10-22T00:36:50.355Z,6.65
2022-10-22T00:39:19.199Z,6.28
2022-10-22T00:41:48.453Z,5.13
2022-10-22T00:44:52.628Z,8.00
2022-10-22T00:47:20.718Z,7.05
2022-10-22T00:49:48.178Z,4.90
2022-10-22T00:52:15.008Z,6.40
2022-10-22T00:54:42.479Z,7.18
2022-10-22T00:57:09.725Z,6.88
2022-10-22T00:59:36.758Z,6.60
2022-10-22T01:02:04.055Z,7.03
2022-10-22T01:04:30.638Z,5.70
2022-10-22T01:06:57.070Z,5.00
2022-10-22T01:09:38.319Z,4.80
2022-10-22T01:12:13.806Z,9.15
2022-10-22T01:14:58.243Z,7.20
2022-10-22T01:17:50.691Z,6.07
2022-10-22T01:20:56.008Z,7.47
2022-10-22T01:24:04.811Z,8.93
2022-10-22T01:26:34.013Z,5.78
2022-10-22T01:29:05.201Z,5.82
2022-10-22T01:31:38.722Z,6.60
2022-10-22T01:34:08.367Z,8.95
2022-10-22T01:36:37.357Z,5.88
2022-10-22T01:39:05.653Z,7.32
2022-10-22T01:41:32.042Z,7.13
2022-10-22T01:43:58.703Z,5.22
2022-10-22T01:46:28.198Z,4.95
2022-10-22T01:49:39.299Z,7.35
2022-10-22T01:52:27.737Z,6.03
2022-10-22T01:55:26.457Z,5.90
2022-10-22T01:58:08.077Z,5.53
2022-10-22T02:00:39.066Z,5.72
2022-10-22T02:03:17.447Z,7.03
2022-10-22T02:05:52.221Z,6.30
2022-10-22T02:08:24.275Z,5.32
2022-10-22T02:10:51.478Z,5.65
2022-10-22T02:13:24.849Z,5.13
2022-10-22T02:15:52.822Z,7.22
2022-10-22T02:18:25.895Z,5.30
2022-10-22T02:20:53.255Z,6.90
2022-10-22T02:23:21.337Z,7.13
2022-10-22T02:25:53.715Z,6.55
2022-10-22T02:28:29.123Z,4.93
2022-10-22T02:31:03.655Z,4.28
2022-10-22T02:33:38.872Z,7.45
2022-10-22T02:36:07.295Z,7.80
2022-10-22T02:38:34.604Z,5.80
2022-10-22T02:41:01.389Z,5.85
2022-10-22T02:43:29.445Z,5.25
2022-10-22T02:45:55.885Z,8.73
2022-10-22T02:48:22.471Z,6.28
2022-10-22T02:50:48.929Z,8.20
2022-10-22T02:53:15.263Z,6.22
2022-10-22T02:55:41.639Z,6.65
2022-10-22T02:58:07.983Z,8.13
2022-10-22T03:00:34.375Z,6.10
2022-10-22T03:03:00.843Z,13.17
2022-10-22T03:05:27.170Z,5.20
2022-10-22T03:07:53.487Z,5.70
2022-10-22T03:10:19.833Z,8.77
2022-10-22T03:12:46.242Z,4.82
2022-10-22T03:15:12.990Z,5.23
2022-10-22T03:17:39.550Z,9.18
2022-10-22T03:20:06.612Z,4.88
2022-10-22T03:22:35.227Z,5.25
2022-10-22T03:25:07.953Z,8.80
2022-10-22T03:27:36.850Z,5.80
2022-10-22T03:30:04.254Z,6.68
2022-10-22T03:32:30.722Z,6.00
2022-10-22T03:34:57.173Z,7.30
2022-10-22T03:37:25.079Z,7.10
2022-10-22T03:39:52.810Z,5.47
2022-10-22T03:42:19.652Z,7.68
2022-10-22T03:44:46.201Z,9.05
2022-10-22T03:47:12.670Z,8.35
2022-10-22T03:49:39.049Z,5.28
2022-10-22T03:52:10.212Z,10.73
2022-10-22T03:57:09.724Z,5.82
2022-10-22T03:59:37.592Z,6.63
2022-10-22T04:02:04.535Z,5.43
2022-10-22T04:04:31.140Z,6.13
2022-10-22T04:06:57.447Z,6.97
2022-10-22T04:09:23.802Z,5.90
2022-10-22T04:11:50.168Z,6.55
2022-10-22T04:14:16.555Z,4.60
2022-10-22T04:16:43.025Z,6.68
2022-10-22T04:19:09.369Z,7.40
2022-10-22T04:21:35.809Z,5.70
2022-10-22T04:24:02.407Z,8.13
2022-10-22T04:26:28.890Z,5.80
2022-10-22T04:28:55.273Z,6.13
2022-10-22T04:31:25.169Z,7.47
2022-10-22T04:33:56.913Z,7.10
2022-10-22T04:36:24.411Z,6.55
2022-10-22T04:38:57.333Z,4.57
2022-10-22T04:41:29.772Z,7.03
2022-10-22T04:43:57.244Z,7.57
2022-10-22T04:46:24.791Z,7.65
2022-10-22T04:48:52.571Z,8.60
2022-10-22T04:51:20.999Z,6.65
2022-10-22T04:53:48.211Z,7.90
2022-10-22T04:56:21.644Z,6.13
2022-10-22T04:58:49.935Z,8.43
2022-10-22T05:01:23.349Z,6.38
2022-10-22T05:03:51.717Z,11.32
2022-10-22T05:06:20.376Z,7.00
2022-10-22T05:08:47.805Z,5.82
2022-10-22T05:11:20.369Z,7.35
2022-10-22T05:13:47.423Z,5.93
2022-10-22T05:16:14.366Z,6.22
2022-10-22T05:18:42.889Z,5.87
2022-10-22T05:21:11.645Z,4.45
2022-10-22T05:23:38.183Z,7.78
2022-10-22T05:26:06.642Z,5.38
2022-10-22T05:28:34.300Z,8.68
2022-10-22T05:31:01.690Z,6.50
2022-10-22T05:33:30.456Z,9.55
2022-10-22T05:35:58.266Z,5.75
2022-10-22T05:38:24.998Z,5.13
2022-10-22T05:41:13.162Z,5.30
2022-10-22T05:43:39.655Z,5.00
2022-10-22T05:46:12.155Z,9.90
2022-10-22T05:48:38.850Z,6.07
2022-10-22T05:51:10.934Z,5.32
2022-10-22T05:53:39.494Z,7.82
2022-10-22T05:56:08.844Z,5.77
2022-10-22T05:58:36.638Z,9.38
2022-10-22T06:01:18.310Z,10.13
2022-10-22T06:03:45.601Z,8.50
2022-10-22T06:06:23.145Z,6.20
2022-10-22T06:08:51.541Z,5.60
2022-10-22T06:11:19.273Z,7.22
2022-10-22T06:13:46.736Z,6.75
2022-10-22T06:16:13.539Z,6.95
2022-10-22T06:18:40.488Z,8.02
2022-10-22T06:21:09.623Z,7.43
2022-10-22T06:23:37.414Z,6.82
2022-10-22T06:26:05.255Z,6.65
2022-10-22T06:28:32.790Z,5.88
2022-10-22T06:31:00.873Z,7.65
2022-10-22T06:33:28.801Z,5.88
2022-10-22T06:35:55.241Z,4.25
2022-10-22T06:38:21.814Z,5.15
2022-10-22T06:40:48.145Z,7.95
2022-10-22T06:43:14.715Z,9.07
2022-10-22T06:45:41.198Z,7.78
2022-10-22T06:48:07.662Z,6.93
2022-10-22T06:50:35.061Z,6.47
2022-10-22T06:53:01.522Z,8.00
2022-10-22T06:55:28.224Z,3.67
2022-10-22T06:57:55.593Z,7.35
2022-10-22T07:00:22.415Z,9.65
2022-10-22T07:02:56.422Z,6.50
2022-10-22T07:05:25.513Z,8.68
2022-10-22T07:07:51.871Z,6.30
2022-10-22T07:10:18.437Z,12.73
2022-10-22T07:12:44.850Z,14.18
2022-10-22T07:15:11.542Z,26.98
2022-10-22T07:17:37.959Z,27.15
2022-10-22T07:20:04.916Z,30.05
2022-10-22T07:22:31.501Z,32.70
2022-10-22T07:24:57.880Z,27.42
2022-10-22T07:27:24.325Z,28.05
2022-10-22T07:29:50.803Z,24.80
2022-10-22T07:32:19.632Z,19.48
2022-10-22T07:34:48.000Z,15.13
2022-10-22T07:37:14.474Z,13.15
2022-10-22T07:39:40.989Z,19.77
2022-10-22T07:42:07.369Z,29.83
2022-10-22T07:44:33.834Z,26.65
2022-10-22T07:47:02.866Z,35.00
2022-10-22T07:49:29.225Z,42.60
2022-10-22T07:51:56.963Z,36.90
2022-10-22T07:54:23.891Z,33.70
2022-10-22T07:56:50.300Z,30.98
2022-10-22T07:59:16.667Z,23.05
2022-10-22T08:01:43.084Z,21.33
2022-10-22T08:04:09.839Z,12.43
2022-10-22T08:06:36.562Z,15.38
2022-10-22T08:09:03.071Z,9.40
2022-10-22T08:11:29.626Z,8.00
2022-10-22T08:13:55.953Z,5.10
2022-10-22T08:16:22.257Z,7.03
2022-10-22T08:18:48.589Z,5.97
2022-10-22T08:21:14.951Z,6.25
2022-10-22T08:23:41.337Z,9.57
2022-10-22T08:26:07.756Z,9.82
2022-10-22T08:28:36.993Z,5.25
2022-10-22T08:31:07.737Z,9.90
2022-10-22T08:33:34.798Z,6.95
2022-10-22T08:36:01.351Z,4.25
2022-10-22T08:38:27.829Z,4.78
2022-10-22T08:41:05.927Z,8.88
2022-10-22T08:44:01.892Z,5.47
2022-10-22T08:46:43.722Z,5.28
2022-10-22T08:49:19.736Z,7.78
2022-10-22T08:51:46.366Z,6.27
2022-10-22T08:54:36.743Z,8.30
2022-10-22T08:57:16.430Z,4.50
2022-10-22T08:59:51.567Z,5.90
2022-10-22T09:02:33.692Z,7.25
2022-10-22T09:05:18.001Z,4.13
2022-10-22T09:07:49.909Z,6.18
2022-10-22T09:10:19.281Z,3.30
2022-10-22T09:12:47.978Z,4.15
2022-10-22T09:15:16.544Z,8.23
2022-10-22T09:18:14.331Z,7.53
2022-10-22T09:20:49.704Z,6.55
2022-10-22T09:23:52.807Z,5.28
2022-10-22T09:26:19.395Z,7.50
2022-10-22T09:28:50.943Z,6.68
2022-10-22T09:31:18.042Z,4.60
2022-10-22T09:33:48.764Z,7.82
2022-10-22T09:36:17.996Z,7.60
2022-10-22T09:38:53.150Z,7.07
2022-10-22T09:41:23.176Z,7.82
2022-10-22T09:43:50.026Z,7.73
2022-10-22T09:46:19.353Z,6.47
2022-10-22T09:48:58.503Z,7.97
2022-10-22T09:51:35.714Z,6.10
2022-10-22T09:54:13.295Z,9.07
2022-10-22T09:56:43.234Z,7.43
2022-10-22T09:59:16.021Z,5.95
2022-10-22T10:01:42.705Z,5.65
2022-10-22T10:04:12.449Z,5.65
2022-10-22T10:06:41.815Z,3.70
2022-10-22T10:09:35.373Z,4.97
2022-10-22T10:12:29.167Z,5.63
2022-10-22T10:15:24.420Z,6.03
2022-10-22T10:18:04.333Z,8.73
2022-10-22T10:20:57.314Z,6.47
2022-10-22T10:23:54.839Z,6.33
2022-10-22T10:26:36.332Z,6.30
2022-10-22T10:29:18.011Z,7.28
2022-10-22T10:32:03.106Z,6.72
2022-10-22T10:34:44.057Z,5.57
2022-10-22T10:37:13.264Z,3.27
2022-10-22T10:39:47.097Z,8.05
2022-10-22T10:42:27.088Z,5.38
2022-10-22T10:45:13.635Z,6.20
2022-10-22T10:48:05.036Z,7.45
2022-10-22T10:50:47.809Z,2.70
2022-10-22T10:53:19.920Z,6.07
2022-10-22T10:55:56.777Z,6.05
2022-10-22T10:58:32.194Z,6.40
2022-10-22T11:01:12.594Z,7.00
2022-10-22T11:03:52.047Z,6.43
2022-10-22T11:06:23.146Z,2.85
2022-10-22T11:09:03.462Z,6.35
2022-10-22T11:11:48.665Z,4.00
2022-10-22T11:14:27.800Z,4.00
2022-10-22T11:17:04.340Z,4.43
2022-10-22T11:19:51.053Z,5.68
2022-10-22T11:22:50.542Z,5.85
2022-10-22T11:25:38.523Z,4.25
2022-10-22T11:28:29.769Z,4.40
2022-10-22T11:31:02.023Z,7.40
2022-10-22T11:33:38.020Z,3.45
2022-10-22T11:36:05.769Z,4.50
2022-10-22T11:38:35.123Z,4.47
2022-10-22T11:41:10.731Z,5.30
2022-10-22T11:43:54.982Z,4.83
2022-10-22T11:46:21.251Z,3.67
2022-10-22T11:49:16.921Z,6.78
2022-10-22T11:51:44.753Z,3.75
2022-10-22T11:54:42.807Z,4.43
2022-10-22T11:57:15.057Z,4.57
2022-10-22T11:59:47.415Z,5.00
2022-10-22T12:02:30.460Z,4.32
2022-10-22T12:05:22.673Z,7.47
2022-10-22T12:08:03.875Z,4.47
2022-10-22T12:10:48.472Z,5.90
2022-10-22T12:13:24.332Z,6.05
2022-10-22T12:15:54.584Z,6.90
2022-10-22T12:18:25.284Z,7.35
2022-10-22T12:20:53.864Z,7.38
2022-10-22T12:23:24.660Z,8.40
2022-10-22T12:25:51.007Z,6.32
2022-10-22T12:28:18.978Z,5.35
2022-10-22T12:30:45.346Z,4.53
2022-10-22T12:33:21.568Z,6.65
2022-10-22T12:35:51.384Z,7.23
2022-10-22T12:38:21.383Z,5.63
2022-10-22T12:40:49.194Z,4.40
2022-10-22T12:43:28.841Z,10.57
2022-10-22T12:45:57.660Z,9.15
2022-10-22T12:48:28.140Z,7.80
2022-10-22T12:50:57.971Z,7.80
2022-10-22T12:53:49.407Z,6.22
2022-10-22T12:56:32.323Z,8.02
2022-10-22T12:59:01.867Z,6.57
2022-10-22T13:01:35.943Z,7.20
2022-10-22T13:04:07.365Z,6.75
2022-10-22T13:06:35.773Z,10.00
2022-10-22T13:09:02.136Z,5.13
2022-10-22T13:11:41.004Z,6.40
2022-10-22T13:14:25.779Z,8.57
2022-10-22T13:17:07.693Z,8.68
2022-10-22T13:19:48.135Z,8.52
2022-10-22T13:22:35.586Z,6.32
2022-10-22T13:25:13.752Z,8.15
2022-10-22T13:27:44.116Z,5.83
2022-10-22T13:30:22.088Z,8.13
2022-10-22T13:32:56.751Z,9.73
2022-10-22T13:35:43.501Z,6.03
2022-10-22T13:38:18.396Z,4.40
2022-10-22T13:40:45.005Z,4.27
2022-10-22T13:43:12.458Z,8.88
2022-10-22T13:45:39.504Z,6.30
2022-10-22T13:48:06.418Z,10.02
2022-10-22T13:50:32.785Z,6.32
2022-10-22T13:52:59.306Z,6.63
2022-10-22T13:55:29.059Z,9.95
2022-10-22T13:58:06.747Z,7.88
2022-10-22T14:00:33.156Z,5.45
2022-10-22T14:03:00.011Z,7.70
2022-10-22T14:05:26.434Z,8.70
2022-10-22T14:07:53.051Z,7.22
2022-10-22T14:10:24.255Z,8.35
2022-10-22T14:12:53.663Z,7.63
2022-10-22T14:15:25.288Z,7.88
2022-10-22T14:17:57.511Z,8.83
2022-10-22T14:20:27.792Z,9.80
2022-10-22T14:22:54.196Z,6.88
2022-10-22T14:25:26.008Z,6.22
2022-10-22T14:27:52.595Z,7.97
2022-10-22T14:30:21.866Z,8.27
2022-10-22T14:32:48.829Z,10.57
2022-10-22T14:35:18.433Z,9.25
2022-10-22T14:37:44.877Z,10.15
2022-10-22T14:40:14.700Z,7.63
2022-10-22T14:42:43.709Z,6.37
2022-10-22T14:45:17.459Z,12.07
2022-10-22T14:47:44.259Z,6.80
2022-10-22T14:50:11.227Z,12.73
2022-10-22T14:52:37.821Z,8.00
2022-10-22T14:55:04.611Z,9.37
2022-10-22T14:57:30.925Z,9.45
2022-10-22T14:59:57.239Z,7.80
2022-10-22T15:02:23.589Z,5.32
2022-10-22T15:04:50.213Z,11.23
2022-10-22T15:07:18.991Z,5.73
2022-10-22T15:09:45.695Z,6.07
2022-10-22T15:12:11.999Z,9.48
2022-10-22T15:14:38.439Z,9.60
2022-10-22T15:17:05.039Z,8.50
2022-10-22T15:19:31.368Z,11.20
2022-10-22T15:21:57.723Z,5.90
2022-10-22T15:24:24.064Z,6.07
2022-10-22T15:26:53.950Z,8.60
2022-10-22T15:29:20.287Z,9.15
2022-10-22T15:31:50.847Z,5.83
2022-10-22T15:34:23.158Z,8.35
2022-10-22T15:36:50.281Z,8.60
2022-10-22T15:39:17.457Z,8.48
2022-10-22T15:41:43.939Z,10.70
2022-10-22T15:44:17.012Z,5.73
2022-10-22T15:46:43.676Z,10.30
2022-10-22T15:49:10.677Z,12.07
2022-10-22T15:51:37.055Z,9.23
2022-10-22T15:54:06.622Z,8.32
2022-10-22T15:56:36.390Z,10.17
2022-10-22T15:59:04.053Z,5.05
2022-10-22T16:01:32.516Z,8.75
2022-10-22T16:04:05.342Z,7.38
2022-10-22T16:06:38.191Z,8.27
2022-10-22T16:09:07.491Z,6.90
2022-10-22T16:11:35.178Z,9.13
2022-10-22T16:14:02.274Z,7.22
2022-10-22T16:16:30.369Z,10.70
2022-10-22T16:18:56.807Z,10.07
2022-10-22T16:21:23.914Z,7.03
2022-10-22T16:23:50.621Z,6.75
2022-10-22T16:26:18.765Z,11.60
2022-10-22T16:28:46.681Z,4.88
2022-10-22T16:31:15.058Z,7.22
2022-10-22T16:33:47.931Z,9.00
2022-10-22T16:36:18.924Z,7.07
2022-10-22T16:38:46.586Z,9.43
2022-10-22T16:41:15.677Z,5.93
2022-10-22T16:43:48.388Z,8.07
2022-10-22T16:46:20.107Z,5.20
2022-10-22T16:48:48.019Z,7.25
2022-10-22T16:51:16.551Z,6.55
2022-10-22T16:53:43.430Z,8.60
2022-10-22T16:56:11.285Z,5.20
2022-10-22T16:58:38.172Z,11.57
2022-10-22T17:01:09.399Z,6.85
2022-10-22T17:03:36.250Z,7.32
2022-10-22T17:06:04.075Z,7.15
2022-10-22T17:08:31.974Z,6.72
2022-10-22T17:10:58.368Z,5.87
2022-10-22T17:13:27.094Z,7.85
2022-10-22T17:16:01.306Z,7.78
2022-10-22T17:18:27.628Z,5.72
2022-10-22T17:20:56.114Z,5.70
2022-10-22T17:23:22.535Z,11.13
2022-10-22T17:25:48.954Z,7.88
2022-10-22T17:28:15.314Z,8.27
2022-10-22T17:30:41.721Z,8.80
2022-10-22T17:33:08.340Z,7.18
2022-10-22T17:35:39.412Z,10.50
2022-10-22T17:38:06.440Z,9.25
2022-10-22T17:40:35.234Z,8.32
2022-10-22T17:43:01.641Z,11.38
2022-10-22T17:45:28.096Z,7.22
2022-10-22T17:47:56.618Z,7.87
2022-10-22T17:50:23.350Z,9.50
2022-10-22T17:52:50.539Z,12.60
2022-10-22T17:55:17.000Z,11.13
2022-10-22T17:57:43.331Z,8.25
2022-10-22T18:00:10.339Z,10.57
2022-10-22T18:02:36.868Z,9.57
2022-10-22T18:05:03.330Z,12.60
2022-10-22T18:07:29.686Z,9.27
2022-10-22T18:09:56.130Z,9.82
2022-10-22T18:12:22.589Z,12.87
2022-10-22T18:14:50.158Z,11.10
2022-10-22T18:17:16.515Z,9.98
2022-10-22T18:19:42.961Z,13.27
2022-10-22T18:22:09.852Z,8.95
2022-10-22T18:24:36.855Z,12.97
2022-10-22T18:27:03.924Z,9.05
2022-10-22T18:29:30.294Z,11.98
2022-10-22T18:31:56.695Z,12.20
2022-10-22T18:34:24.027Z,9.18
2022-10-22T18:36:50.626Z,11.70
2022-10-22T18:39:17.795Z,16.48
2022-10-22T18:41:44.246Z,12.98
2022-10-22T18:44:13.712Z,8.02
2022-10-22T18:46:40.418Z,11.50
2022-10-22T18:49:07.520Z,14.47
2022-10-22T18:51:34.953Z,13.93
2022-10-22T18:54:21.663Z,9.70
2022-10-22T18:56:48.917Z,10.18
2022-10-22T18:59:21.789Z,12.85
2022-10-22T19:01:48.510Z,9.83
2022-10-22T19:04:14.979Z,10.90
2022-10-22T19:06:45.331Z,9.88
2022-10-22T19:09:13.881Z,12.02
2022-10-22T19:11:40.391Z,10.95
2022-10-22T19:14:06.778Z,10.93
2022-10-22T19:16:34.725Z,11.75
2022-10-22T19:19:03.884Z,14.48
2022-10-22T19:21:31.005Z,13.15
2022-10-22T19:23:58.782Z,10.48
2022-10-22T19:26:26.457Z,10.10
2022-10-22T19:28:57.771Z,12.43
2022-10-22T19:31:25.692Z,9.55
2022-10-22T19:33:54.478Z,10.43
2022-10-22T19:36:21.887Z,12.68
2022-10-22T19:38:49.135Z,15.77
2022-10-22T19:41:19.458Z,12.32
2022-10-22T19:43:49.044Z,13.88
2022-10-22T19:46:15.708Z,11.07
2022-10-22T19:48:42.084Z,14.05
2022-10-22T19:51:10.982Z,14.83
2022-10-22T19:53:38.572Z,13.93
2022-10-22T19:56:07.277Z,13.35
2022-10-22T19:58:34.597Z,13.93
2022-10-22T20:01:05.625Z,14.27
2022-10-22T20:03:32.949Z,14.32
2022-10-22T20:05:59.317Z,16.40
2022-10-22T20:08:25.647Z,13.57
2022-10-22T20:10:52.012Z,11.63
2022-10-22T20:13:18.438Z,12.27
2022-10-22T20:15:48.514Z,15.13
2022-10-22T20:18:15.123Z,14.82
2022-10-22T20:20:41.502Z,12.55
2022-10-22T20:23:08.625Z,17.33
2022-10-22T20:25:35.724Z,17.27
2022-10-22T20:28:02.411Z,14.85
2022-10-22T20:30:28.743Z,14.45
2022-10-22T20:32:55.271Z,16.92
2022-10-22T20:35:21.824Z,13.93
2022-10-22T20:37:48.267Z,13.38
2022-10-22T20:40:14.732Z,13.90
2022-10-22T20:42:41.345Z,16.00
2022-10-22T20:45:08.450Z,14.48
2022-10-22T20:47:50.774Z,11.68
2022-10-22T20:50:19.330Z,11.60
2022-10-22T20:52:45.649Z,14.57
2022-10-22T20:55:13.573Z,16.95
2022-10-22T20:57:41.354Z,12.63
2022-10-22T21:00:08.721Z,14.05
2022-10-22T21:02:36.059Z,18.77
2022-10-22T21:05:02.453Z,13.82
2022-10-22T21:07:28.823Z,17.33
2022-10-22T21:09:55.149Z,14.25
2022-10-22T21:12:21.535Z,18.20
2022-10-22T21:14:47.975Z,14.45
2022-10-22T21:17:14.320Z,15.60
2022-10-22T21:19:40.738Z,12.75
2022-10-22T21:22:07.154Z,15.70
2022-10-22T21:24:33.526Z,15.07
2022-10-22T21:26:59.865Z,11.27
2022-10-22T21:29:26.249Z,13.93
2022-10-22T21:31:53.517Z,12.75
2022-10-22T21:34:20.032Z,13.15
2022-10-22T21:39:13.813Z,11.68
2022-10-22T21:41:40.283Z,14.55
2022-10-22T21:44:06.718Z,12.63
2022-10-22T21:46:34.150Z,14.70
2022-10-22T21:49:02.897Z,13.70
2022-10-22T21:51:31.673Z,12.15
2022-10-22T21:53:58.415Z,13.30
2022-10-22T21:56:27.420Z,12.52
2022-10-22T21:58:54.528Z,24.05
2022-10-22T22:01:21.714Z,13.25
2022-10-22T22:03:49.821Z,16.33
2022-10-22T22:06:21.252Z,15.48
2022-10-22T22:08:49.145Z,15.95
2022-10-22T22:11:18.666Z,14.38
2022-10-22T22:13:45.335Z,12.88
2022-10-22T22:16:14.785Z,12.95
2022-10-22T22:18:41.719Z,12.30
2022-10-22T22:21:12.144Z,10.07
2022-10-22T22:23:41.839Z,14.23
2022-10-22T22:26:08.615Z,15.85
2022-10-22T22:28:35.793Z,13.52
2022-10-22T22:31:11.068Z,13.98
2022-10-22T22:33:37.466Z,12.52
2022-10-22T22:36:04.058Z,15.18
2022-10-22T22:38:30.433Z,14.02
2022-10-22T22:40:59.312Z,14.40
2022-10-22T22:43:25.869Z,12.90
2022-10-22T22:46:03.104Z,10.88
2022-10-22T22:48:29.815Z,13.23
2022-10-22T22:50:59.840Z,11.50
2022-10-22T22:53:27.904Z,11.87
2022-10-22T22:56:05.923Z,13.32
2022-10-22T22:58:32.279Z,15.18
2022-10-22T23:01:32.461Z,11.68
2022-10-22T23:04:13.023Z,13.80
2022-10-22T23:06:39.601Z,11.50
2022-10-22T23:09:08.799Z,12.60
2022-10-22T23:11:35.641Z,11.75
2022-10-22T23:14:04.767Z,13.93
2022-10-22T23:16:33.795Z,11.52
2022-10-22T23:19:01.388Z,14.18
2022-10-22T23:21:30.759Z,13.23
2022-10-22T23:24:00.784Z,15.05
2022-10-22T23:26:29.973Z,11.18
2022-10-22T23:29:11.957Z,15.40
2022-10-22T23:31:38.461Z,12.20
2022-10-22T23:34:06.661Z,14.07
2022-10-22T23:36:35.721Z,15.88
2022-10-22T23:39:11.022Z,12.88
2022-10-22T23:41:38.046Z,13.10
2022-10-22T23:44:05.403Z,11.15
2022-10-22T23:46:33.286Z,12.15
2022-10-22T23:49:00.565Z,16.90
2022-10-22T23:51:27.352Z,14.48
2022-10-22T23:53:59.657Z,16.42
2022-10-22T23:56:26.521Z,13.50
2022-10-22T23:58:54.204Z,14.57
